sensor_id;sensor_type;location;lat;lon;timestamp;temperature;humidity
4520;DHT22;2272;49.226;8.108;2023-07-20T00:00:58;18.30;94.90
4520;DHT22;2272;49.226;8.108;2023-07-20T00:03:25;18.20;95.00
4520;DHT22;2272;49.226;8.108;2023-07-20T00:05:53;18.20;95.00
4520;DHT22;2272;49.226;8.108;2023-07-20T00:08:19;18.20;95.10
4520;DHT22;2272;49.226;8.108;2023-07-20T00:10:46;18.20;95.20
4520;DHT22;2272;49.226;8.108;2023-07-20T00:13:13;18.20;95.30
4520;DHT22;2272;49.226;8.108;2023-07-20T00:15:41;18.10;95.40
4520;DHT22;2272;49.226;8.108;2023-07-20T00:18:08;18.00;95.60
4520;DHT22;2272;49.226;8.108;2023-07-20T00:20:35;18.00;95.80
4520;DHT22;2272;49.226;8.108;2023-07-20T00:23:03;17.90;95.80
4520;DHT22;2272;49.226;8.108;2023-07-20T00:25:30;17.90;95.90
4520;DHT22;2272;49.226;8.108;2023-07-20T00:27:58;17.80;95.90
4520;DHT22;2272;49.226;8.108;2023-07-20T00:30:25;17.80;96.10
4520;DHT22;2272;49.226;8.108;2023-07-20T00:32:52;17.70;96.20
4520;DHT22;2272;49.226;8.108;2023-07-20T00:35:19;17.70;96.40
4520;DHT22;2272;49.226;8.108;2023-07-20T00:37:46;17.50;97.00
4520;DHT22;2272;49.226;8.108;2023-07-20T00:40:15;17.40;96.80
4520;DHT22;2272;49.226;8.108;2023-07-20T00:42:43;17.40;97.30
4520;DHT22;2272;49.226;8.108;2023-07-20T00:45:10;17.30;97.10
4520;DHT22;2272;49.226;8.108;2023-07-20T00:47:37;17.20;97.30
4520;DHT22;2272;49.226;8.108;2023-07-20T00:50:05;17.20;97.70
4520;DHT22;2272;49.226;8.108;2023-07-20T00:52:33;17.00;98.00
4520;DHT22;2272;49.226;8.108;2023-07-20T00:55:01;17.00;98.30
4520;DHT22;2272;49.226;8.108;2023-07-20T00:57:29;16.90;98.60
4520;DHT22;2272;49.226;8.108;2023-07-20T00:59:57;16.80;99.00
4520;DHT22;2272;49.226;8.108;2023-07-20T01:02:24;16.60;99.30
4520;DHT22;2272;49.226;8.108;2023-07-20T01:04:51;16.50;99.60
4520;DHT22;2272;49.226;8.108;2023-07-20T01:07:24;16.40;99.90
4520;DHT22;2272;49.226;8.108;2023-07-20T01:09:59;16.30;99.90
4520;DHT22;2272;49.226;8.108;2023-07-20T01:12:33;16.20;99.90
4520;DHT22;2272;49.226;8.108;2023-07-20T01:15:03;16.20;99.90
4520;DHT22;2272;49.226;8.108;2023-07-20T01:17:30;16.10;99.90
4520;DHT22;2272;49.226;8.108;2023-07-20T01:19:57;16.10;99.90
4520;DHT22;2272;49.226;8.108;2023-07-20T01:22:40;16.00;99.90
4520;DHT22;2272;49.226;8.108;2023-07-20T01:25:23;16.00;99.90
4520;DHT22;2272;49.226;8.108;2023-07-20T01:31:21;15.90;99.90
4520;DHT22;2272;49.226;8.108;2023-07-20T01:33:50;15.80;99.90
4520;DHT22;2272;49.226;8.108;2023-07-20T01:36:18;15.80;99.90
4520;DHT22;2272;49.226;8.108;2023-07-20T01:38:46;15.80;99.90
4520;DHT22;2272;49.226;8.108;2023-07-20T01:41:14;15.70;99.90
4520;DHT22;2272;49.226;8.108;2023-07-20T01:43:42;15.70;99.90
4520;DHT22;2272;49.226;8.108;2023-07-20T01:46:09;15.70;99.90
4520;DHT22;2272;49.226;8.108;2023-07-20T01:48:37;15.70;99.90
4520;DHT22;2272;49.226;8.108;2023-07-20T01:51:04;15.70;99.90
4520;DHT22;2272;49.226;8.108;2023-07-20T01:53:31;15.60;99.90
4520;DHT22;2272;49.226;8.108;2023-07-20T01:55:58;15.60;99.90
4520;DHT22;2272;49.226;8.108;2023-07-20T01:58:25;15.60;99.90
4520;DHT22;2272;49.226;8.108;2023-07-20T02:00:52;15.60;99.90
4520;DHT22;2272;49.226;8.108;2023-07-20T02:03:19;15.60;99.90
4520;DHT22;2272;49.226;8.108;2023-07-20T02:05:48;15.60;99.90
4520;DHT22;2272;49.226;8.108;2023-07-20T02:08:15;15.60;99.90
4520;DHT22;2272;49.226;8.108;2023-07-20T02:10:45;15.60;99.90
4520;DHT22;2272;49.226;8.108;2023-07-20T02:13:12;15.60;99.90
4520;DHT22;2272;49.226;8.108;2023-07-20T02:15:39;15.60;99.90
4520;DHT22;2272;49.226;8.108;2023-07-20T02:18:06;15.50;99.90
4520;DHT22;2272;49.226;8.108;2023-07-20T02:20:32;15.50;99.90
4520;DHT22;2272;49.226;8.108;2023-07-20T02:23:01;15.50;99.90
4520;DHT22;2272;49.226;8.108;2023-07-20T02:25:28;15.40;99.90
4520;DHT22;2272;49.226;8.108;2023-07-20T02:27:56;15.30;99.90
4520;DHT22;2272;49.226;8.108;2023-07-20T02:30:23;15.20;99.90
4520;DHT22;2272;49.226;8.108;2023-07-20T02:32:50;15.20;99.90
4520;DHT22;2272;49.226;8.108;2023-07-20T02:35:17;15.10;99.90
4520;DHT22;2272;49.226;8.108;2023-07-20T02:37:44;15.00;99.90
4520;DHT22;2272;49.226;8.108;2023-07-20T02:40:13;14.90;99.90
4520;DHT22;2272;49.226;8.108;2023-07-20T02:42:40;14.90;99.90
4520;DHT22;2272;49.226;8.108;2023-07-20T02:45:07;14.90;99.90
4520;DHT22;2272;49.226;8.108;2023-07-20T02:47:34;14.80;99.90
4520;DHT22;2272;49.226;8.108;2023-07-20T02:50:05;14.80;99.90
4520;DHT22;2272;49.226;8.108;2023-07-20T02:52:33;14.80;99.90
4520;DHT22;2272;49.226;8.108;2023-07-20T02:55:00;14.70;99.90
4520;DHT22;2272;49.226;8.108;2023-07-20T02:57:28;14.60;99.90
4520;DHT22;2272;49.226;8.108;2023-07-20T02:59:55;14.60;99.90
4520;DHT22;2272;49.226;8.108;2023-07-20T03:02:22;14.60;99.90
4520;DHT22;2272;49.226;8.108;2023-07-20T03:04:49;14.60;99.90
4520;DHT22;2272;49.226;8.108;2023-07-20T03:07:16;14.60;99.90
4520;DHT22;2272;49.226;8.108;2023-07-20T03:09:43;14.60;99.90
4520;DHT22;2272;49.226;8.108;2023-07-20T03:12:10;14.60;99.90
4520;DHT22;2272;49.226;8.108;2023-07-20T03:14:38;14.60;99.90
4520;DHT22;2272;49.226;8.108;2023-07-20T03:17:06;14.70;99.90
4520;DHT22;2272;49.226;8.108;2023-07-20T03:19:33;14.60;99.90
4520;DHT22;2272;49.226;8.108;2023-07-20T03:22:01;14.60;99.90
4520;DHT22;2272;49.226;8.108;2023-07-20T03:24:28;14.60;99.90
4520;DHT22;2272;49.226;8.108;2023-07-20T03:26:54;14.50;99.90
4520;DHT22;2272;49.226;8.108;2023-07-20T03:29:21;14.50;99.90
4520;DHT22;2272;49.226;8.108;2023-07-20T03:31:50;14.50;99.90
4520;DHT22;2272;49.226;8.108;2023-07-20T03:34:17;14.40;99.90
4520;DHT22;2272;49.226;8.108;2023-07-20T03:36:44;14.40;99.90
4520;DHT22;2272;49.226;8.108;2023-07-20T03:39:10;14.40;99.90
4520;DHT22;2272;49.226;8.108;2023-07-20T03:41:38;14.40;99.90
4520;DHT22;2272;49.226;8.108;2023-07-20T03:44:05;14.40;99.90
4520;DHT22;2272;49.226;8.108;2023-07-20T03:46:32;14.40;99.90
4520;DHT22;2272;49.226;8.108;2023-07-20T03:49:01;14.40;99.90
4520;DHT22;2272;49.226;8.108;2023-07-20T03:51:28;14.40;99.90
4520;DHT22;2272;49.226;8.108;2023-07-20T03:53:55;14.40;99.90
4520;DHT22;2272;49.226;8.108;2023-07-20T03:56:22;14.40;99.90
4520;DHT22;2272;49.226;8.108;2023-07-20T03:58:49;14.30;99.90
4520;DHT22;2272;49.226;8.108;2023-07-20T04:01:16;14.30;99.90
4520;DHT22;2272;49.226;8.108;2023-07-20T04:03:43;14.30;99.90
4520;DHT22;2272;49.226;8.108;2023-07-20T04:06:12;14.30;99.90
4520;DHT22;2272;49.226;8.108;2023-07-20T04:08:39;14.30;99.90
4520;DHT22;2272;49.226;8.108;2023-07-20T04:11:06;14.30;99.90
4520;DHT22;2272;49.226;8.108;2023-07-20T04:13:33;14.40;99.90
4520;DHT22;2272;49.226;8.108;2023-07-20T04:16:00;14.40;99.90
4520;DHT22;2272;49.226;8.108;2023-07-20T04:18:28;14.40;99.90
4520;DHT22;2272;49.226;8.108;2023-07-20T04:20:54;14.40;99.90
4520;DHT22;2272;49.226;8.108;2023-07-20T04:23:23;14.40;99.90
4520;DHT22;2272;49.226;8.108;2023-07-20T04:25:51;14.40;99.90
4520;DHT22;2272;49.226;8.108;2023-07-20T04:28:17;14.40;99.90
4520;DHT22;2272;49.226;8.108;2023-07-20T04:30:45;14.40;99.90
4520;DHT22;2272;49.226;8.108;2023-07-20T04:33:11;14.50;99.90
4520;DHT22;2272;49.226;8.108;2023-07-20T04:35:46;14.50;99.90
4520;DHT22;2272;49.226;8.108;2023-07-20T04:38:14;14.60;99.90
4520;DHT22;2272;49.226;8.108;2023-07-20T04:40:44;14.70;99.90
4520;DHT22;2272;49.226;8.108;2023-07-20T04:43:11;14.80;99.90
4520;DHT22;2272;49.226;8.108;2023-07-20T04:45:39;14.80;99.90
4520;DHT22;2272;49.226;8.108;2023-07-20T04:48:08;14.80;99.90
4520;DHT22;2272;49.226;8.108;2023-07-20T04:50:36;14.90;99.90
4520;DHT22;2272;49.226;8.108;2023-07-20T04:53:03;14.90;99.90
4520;DHT22;2272;49.226;8.108;2023-07-20T04:55:38;15.00;99.90
4520;DHT22;2272;49.226;8.108;2023-07-20T04:58:06;15.10;99.90
4520;DHT22;2272;49.226;8.108;2023-07-20T05:00:33;15.10;99.90
4520;DHT22;2272;49.226;8.108;2023-07-20T05:03:02;15.30;99.90
4520;DHT22;2272;49.226;8.108;2023-07-20T05:05:30;15.40;99.90
4520;DHT22;2272;49.226;8.108;2023-07-20T05:07:58;15.40;99.90
4520;DHT22;2272;49.226;8.108;2023-07-20T05:10:30;15.60;99.90
4520;DHT22;2272;49.226;8.108;2023-07-20T05:12:58;15.70;99.90
4520;DHT22;2272;49.226;8.108;2023-07-20T05:15:26;15.80;99.90
4520;DHT22;2272;49.226;8.108;2023-07-20T05:17:53;16.00;99.90
4520;DHT22;2272;49.226;8.108;2023-07-20T05:20:23;16.10;99.90
4520;DHT22;2272;49.226;8.108;2023-07-20T05:22:51;16.20;99.90
4520;DHT22;2272;49.226;8.108;2023-07-20T05:25:19;16.30;99.90
4520;DHT22;2272;49.226;8.108;2023-07-20T05:27:48;16.40;99.90
4520;DHT22;2272;49.226;8.108;2023-07-20T05:30:16;16.50;99.90
4520;DHT22;2272;49.226;8.108;2023-07-20T05:32:45;16.60;99.90
4520;DHT22;2272;49.226;8.108;2023-07-20T05:35:16;16.70;99.90
4520;DHT22;2272;49.226;8.108;2023-07-20T05:37:44;16.80;99.90
4520;DHT22;2272;49.226;8.108;2023-07-20T05:40:15;17.00;99.90
4520;DHT22;2272;49.226;8.108;2023-07-20T05:42:44;17.60;99.90
4520;DHT22;2272;49.226;8.108;2023-07-20T05:45:13;18.30;99.90
4520;DHT22;2272;49.226;8.108;2023-07-20T05:47:44;18.80;99.90
4520;DHT22;2272;49.226;8.108;2023-07-20T05:50:12;19.20;99.90
4520;DHT22;2272;49.226;8.108;2023-07-20T05:52:39;19.50;99.90
4520;DHT22;2272;49.226;8.108;2023-07-20T05:55:07;19.70;99.90
4520;DHT22;2272;49.226;8.108;2023-07-20T05:57:34;19.80;99.90
4520;DHT22;2272;49.226;8.108;2023-07-20T06:00:06;19.80;99.90
4520;DHT22;2272;49.226;8.108;2023-07-20T06:02:35;19.80;99.90
4520;DHT22;2272;49.226;8.108;2023-07-20T06:08:15;19.60;99.90
4520;DHT22;2272;49.226;8.108;2023-07-20T06:10:42;19.70;99.90
4520;DHT22;2272;49.226;8.108;2023-07-20T06:13:09;19.60;99.90
4520;DHT22;2272;49.226;8.108;2023-07-20T06:15:36;19.70;99.90
4520;DHT22;2272;49.226;8.108;2023-07-20T06:18:08;19.80;99.90
4520;DHT22;2272;49.226;8.108;2023-07-20T06:20:37;19.80;99.90
4520;DHT22;2272;49.226;8.108;2023-07-20T06:23:05;19.70;99.90
4520;DHT22;2272;49.226;8.108;2023-07-20T06:25:34;19.70;99.90
4520;DHT22;2272;49.226;8.108;2023-07-20T06:28:02;19.60;99.90
4520;DHT22;2272;49.226;8.108;2023-07-20T06:30:30;19.70;99.90
4520;DHT22;2272;49.226;8.108;2023-07-20T06:32:58;19.60;99.90
4520;DHT22;2272;49.226;8.108;2023-07-20T06:35:28;19.60;99.90
4520;DHT22;2272;49.226;8.108;2023-07-20T06:38:09;19.60;99.90
4520;DHT22;2272;49.226;8.108;2023-07-20T06:40:39;19.40;99.90
4520;DHT22;2272;49.226;8.108;2023-07-20T06:43:08;19.20;99.90
4520;DHT22;2272;49.226;8.108;2023-07-20T06:45:36;19.10;99.90
4520;DHT22;2272;49.226;8.108;2023-07-20T06:48:03;19.10;99.90
4520;DHT22;2272;49.226;8.108;2023-07-20T06:50:32;19.00;99.90
4520;DHT22;2272;49.226;8.108;2023-07-20T06:53:00;19.00;99.90
4520;DHT22;2272;49.226;8.108;2023-07-20T06:55:29;19.00;99.90
4520;DHT22;2272;49.226;8.108;2023-07-20T06:57:58;19.00;99.90
4520;DHT22;2272;49.226;8.108;2023-07-20T07:00:25;19.10;99.90
4520;DHT22;2272;49.226;8.108;2023-07-20T07:02:56;19.20;99.90
4520;DHT22;2272;49.226;8.108;2023-07-20T07:05:37;19.30;99.90
4520;DHT22;2272;49.226;8.108;2023-07-20T07:08:06;19.40;99.90
4520;DHT22;2272;49.226;8.108;2023-07-20T07:10:36;19.60;99.90
4520;DHT22;2272;49.226;8.108;2023-07-20T07:13:07;19.80;99.90
4520;DHT22;2272;49.226;8.108;2023-07-20T07:15:37;20.00;99.90
4520;DHT22;2272;49.226;8.108;2023-07-20T07:18:06;20.20;99.90
4520;DHT22;2272;49.226;8.108;2023-07-20T07:20:34;20.50;99.90
4520;DHT22;2272;49.226;8.108;2023-07-20T07:23:01;20.70;99.90
4520;DHT22;2272;49.226;8.108;2023-07-20T07:25:28;21.00;99.90
4520;DHT22;2272;49.226;8.108;2023-07-20T07:27:56;21.10;99.90
4520;DHT22;2272;49.226;8.108;2023-07-20T07:30:25;21.10;99.90
4520;DHT22;2272;49.226;8.108;2023-07-20T07:32:51;21.20;99.90
4520;DHT22;2272;49.226;8.108;2023-07-20T07:35:18;21.20;99.90
4520;DHT22;2272;49.226;8.108;2023-07-20T07:37:45;21.30;99.90
4520;DHT22;2272;49.226;8.108;2023-07-20T07:40:12;21.60;99.90
4520;DHT22;2272;49.226;8.108;2023-07-20T07:42:39;21.70;99.90
4520;DHT22;2272;49.226;8.108;2023-07-20T07:45:07;21.90;99.90
4520;DHT22;2272;49.226;8.108;2023-07-20T07:47:36;22.10;99.90
4520;DHT22;2272;49.226;8.108;2023-07-20T07:50:03;22.00;99.90
4520;DHT22;2272;49.226;8.108;2023-07-20T07:52:30;21.80;99.90
4520;DHT22;2272;49.226;8.108;2023-07-20T07:54:57;21.60;99.90
4520;DHT22;2272;49.226;8.108;2023-07-20T07:57:25;21.50;99.90
4520;DHT22;2272;49.226;8.108;2023-07-20T07:59:52;21.50;99.90
4520;DHT22;2272;49.226;8.108;2023-07-20T08:02:19;21.80;99.90
4520;DHT22;2272;49.226;8.108;2023-07-20T08:04:48;22.30;99.90
4520;DHT22;2272;49.226;8.108;2023-07-20T08:07:17;22.70;99.90
4520;DHT22;2272;49.226;8.108;2023-07-20T08:09:44;22.70;99.90
4520;DHT22;2272;49.226;8.108;2023-07-20T08:12:11;22.50;99.90
4520;DHT22;2272;49.226;8.108;2023-07-20T08:14:38;22.30;99.90
4520;DHT22;2272;49.226;8.108;2023-07-20T08:17:05;22.00;99.90
4520;DHT22;2272;49.226;8.108;2023-07-20T08:19:32;21.80;99.90
4520;DHT22;2272;49.226;8.108;2023-07-20T08:22:02;21.90;99.90
4520;DHT22;2272;49.226;8.108;2023-07-20T08:24:29;22.20;99.90
4520;DHT22;2272;49.226;8.108;2023-07-20T08:26:55;22.60;99.90
4520;DHT22;2272;49.226;8.108;2023-07-20T08:29:23;23.10;99.90
4520;DHT22;2272;49.226;8.108;2023-07-20T08:31:50;23.40;99.60
4520;DHT22;2272;49.226;8.108;2023-07-20T08:34:19;23.80;98.90
4520;DHT22;2272;49.226;8.108;2023-07-20T08:36:46;24.00;98.40
4520;DHT22;2272;49.226;8.108;2023-07-20T08:39:15;24.30;97.50
4520;DHT22;2272;49.226;8.108;2023-07-20T08:41:43;24.80;96.80
4520;DHT22;2272;49.226;8.108;2023-07-20T08:44:10;25.30;96.20
4520;DHT22;2272;49.226;8.108;2023-07-20T08:46:38;25.40;94.90
4520;DHT22;2272;49.226;8.108;2023-07-20T08:49:06;25.20;94.80
4520;DHT22;2272;49.226;8.108;2023-07-20T08:51:33;24.90;95.00
4520;DHT22;2272;49.226;8.108;2023-07-20T08:54:02;24.70;94.90
4520;DHT22;2272;49.226;8.108;2023-07-20T08:56:31;25.00;94.90
4520;DHT22;2272;49.226;8.108;2023-07-20T08:59:01;25.30;94.80
4520;DHT22;2272;49.226;8.108;2023-07-20T09:01:28;25.40;94.30
4520;DHT22;2272;49.226;8.108;2023-07-20T09:03:56;25.60;93.80
4520;DHT22;2272;49.226;8.108;2023-07-20T09:06:23;25.80;93.30
4520;DHT22;2272;49.226;8.108;2023-07-20T09:08:50;26.00;93.20
4520;DHT22;2272;49.226;8.108;2023-07-20T09:11:17;26.30;92.10
4520;DHT22;2272;49.226;8.108;2023-07-20T09:13:45;26.00;91.70
4520;DHT22;2272;49.226;8.108;2023-07-20T09:16:13;25.80;92.10
4520;DHT22;2272;49.226;8.108;2023-07-20T09:18:41;26.20;91.70
4520;DHT22;2272;49.226;8.108;2023-07-20T09:21:09;26.70;91.20
4520;DHT22;2272;49.226;8.108;2023-07-20T09:23:37;27.30;89.80
4520;DHT22;2272;49.226;8.108;2023-07-20T09:26:10;27.80;88.30
4520;DHT22;2272;49.226;8.108;2023-07-20T09:28:41;28.20;86.50
4520;DHT22;2272;49.226;8.108;2023-07-20T09:31:17;28.30;83.60
4520;DHT22;2272;49.226;8.108;2023-07-20T09:33:44;28.30;83.00
4520;DHT22;2272;49.226;8.108;2023-07-20T09:36:11;28.30;83.30
4520;DHT22;2272;49.226;8.108;2023-07-20T09:38:38;28.50;82.90
4520;DHT22;2272;49.226;8.108;2023-07-20T09:41:05;28.70;82.90
4520;DHT22;2272;49.226;8.108;2023-07-20T09:43:34;28.70;81.70
4520;DHT22;2272;49.226;8.108;2023-07-20T09:46:01;29.00;80.70
4520;DHT22;2272;49.226;8.108;2023-07-20T09:48:29;29.00;78.60
4520;DHT22;2272;49.226;8.108;2023-07-20T09:50:57;28.80;76.20
4520;DHT22;2272;49.226;8.108;2023-07-20T09:53:25;28.80;76.20
4520;DHT22;2272;49.226;8.108;2023-07-20T09:55:53;28.70;77.70
4520;DHT22;2272;49.226;8.108;2023-07-20T09:58:21;29.10;77.80
4520;DHT22;2272;49.226;8.108;2023-07-20T10:00:51;29.50;76.80
4520;DHT22;2272;49.226;8.108;2023-07-20T10:03:20;29.40;74.70
4520;DHT22;2272;49.226;8.108;2023-07-20T10:05:54;29.30;74.40
4520;DHT22;2272;49.226;8.108;2023-07-20T10:08:24;29.20;73.70
4520;DHT22;2272;49.226;8.108;2023-07-20T10:10:52;29.10;73.50
4520;DHT22;2272;49.226;8.108;2023-07-20T10:13:25;29.30;73.70
4520;DHT22;2272;49.226;8.108;2023-07-20T10:15:54;29.30;74.10
4520;DHT22;2272;49.226;8.108;2023-07-20T10:18:27;29.00;73.70
4520;DHT22;2272;49.226;8.108;2023-07-20T10:20:57;28.70;73.90
4520;DHT22;2272;49.226;8.108;2023-07-20T10:23:26;28.90;74.30
4520;DHT22;2272;49.226;8.108;2023-07-20T10:25:55;29.50;73.80
4520;DHT22;2272;49.226;8.108;2023-07-20T10:28:23;29.60;70.70
4520;DHT22;2272;49.226;8.108;2023-07-20T10:30:50;29.30;70.30
4520;DHT22;2272;49.226;8.108;2023-07-20T10:33:18;28.80;71.20
4520;DHT22;2272;49.226;8.108;2023-07-20T10:35:53;28.50;72.00
4520;DHT22;2272;49.226;8.108;2023-07-20T10:38:38;28.30;72.30
4520;DHT22;2272;49.226;8.108;2023-07-20T10:41:16;28.30;72.50
4520;DHT22;2272;49.226;8.108;2023-07-20T10:43:43;28.20;71.80
4520;DHT22;2272;49.226;8.108;2023-07-20T10:46:11;28.20;71.70
4520;DHT22;2272;49.226;8.108;2023-07-20T10:48:59;28.20;71.80
4520;DHT22;2272;49.226;8.108;2023-07-20T10:51:26;28.10;72.10
4520;DHT22;2272;49.226;8.108;2023-07-20T10:53:55;28.20;72.10
4520;DHT22;2272;49.226;8.108;2023-07-20T10:56:26;28.20;69.30
4520;DHT22;2272;49.226;8.108;2023-07-20T10:58:56;28.30;71.70
4520;DHT22;2272;49.226;8.108;2023-07-20T11:01:28;28.50;72.30
4520;DHT22;2272;49.226;8.108;2023-07-20T11:03:57;29.00;70.50
4520;DHT22;2272;49.226;8.108;2023-07-20T11:06:32;29.10;69.40
4520;DHT22;2272;49.226;8.108;2023-07-20T11:09:09;28.80;68.20
4520;DHT22;2272;49.226;8.108;2023-07-20T11:11:40;28.30;69.20
4520;DHT22;2272;49.226;8.108;2023-07-20T11:14:08;28.00;71.00
4520;DHT22;2272;49.226;8.108;2023-07-20T11:16:40;27.60;72.00
4520;DHT22;2272;49.226;8.108;2023-07-20T11:19:14;27.80;73.30
4520;DHT22;2272;49.226;8.108;2023-07-20T11:21:43;28.10;70.40
4520;DHT22;2272;49.226;8.108;2023-07-20T11:24:11;28.50;71.30
4520;DHT22;2272;49.226;8.108;2023-07-20T11:26:43;28.90;69.50
4520;DHT22;2272;49.226;8.108;2023-07-20T11:29:10;29.30;66.80
4520;DHT22;2272;49.226;8.108;2023-07-20T11:31:38;29.50;66.60
4520;DHT22;2272;49.226;8.108;2023-07-20T11:34:05;29.60;65.60
4520;DHT22;2272;49.226;8.108;2023-07-20T11:36:33;29.60;65.90
4520;DHT22;2272;49.226;8.108;2023-07-20T11:39:00;29.90;63.30
4520;DHT22;2272;49.226;8.108;2023-07-20T11:41:31;30.40;62.70
4520;DHT22;2272;49.226;8.108;2023-07-20T11:43:58;30.90;60.50
4520;DHT22;2272;49.226;8.108;2023-07-20T11:46:27;31.40;61.00
4520;DHT22;2272;49.226;8.108;2023-07-20T11:48:58;31.40;57.30
4520;DHT22;2272;49.226;8.108;2023-07-20T11:51:27;31.10;58.30
4520;DHT22;2272;49.226;8.108;2023-07-20T11:53:54;31.00;58.80
4520;DHT22;2272;49.226;8.108;2023-07-20T11:56:22;30.70;58.40
4520;DHT22;2272;49.226;8.108;2023-07-20T11:58:54;30.30;58.40
4520;DHT22;2272;49.226;8.108;2023-07-20T12:01:22;30.10;58.40
4520;DHT22;2272;49.226;8.108;2023-07-20T12:03:49;30.20;58.80
4520;DHT22;2272;49.226;8.108;2023-07-20T12:06:17;30.10;59.60
4520;DHT22;2272;49.226;8.108;2023-07-20T12:08:44;30.00;59.20
4520;DHT22;2272;49.226;8.108;2023-07-20T12:11:11;29.80;57.80
4520;DHT22;2272;49.226;8.108;2023-07-20T12:13:40;29.80;58.00
4520;DHT22;2272;49.226;8.108;2023-07-20T12:16:13;29.70;57.50
4520;DHT22;2272;49.226;8.108;2023-07-20T12:18:41;29.90;57.90
4520;DHT22;2272;49.226;8.108;2023-07-20T12:21:08;29.80;59.10
4520;DHT22;2272;49.226;8.108;2023-07-20T12:23:36;29.30;60.60
4520;DHT22;2272;49.226;8.108;2023-07-20T12:26:07;29.10;59.50
4520;DHT22;2272;49.226;8.108;2023-07-20T12:28:38;29.30;60.90
4520;DHT22;2272;49.226;8.108;2023-07-20T12:31:06;29.60;57.20
4520;DHT22;2272;49.226;8.108;2023-07-20T12:33:34;29.90;57.80
4520;DHT22;2272;49.226;8.108;2023-07-20T12:36:01;30.40;57.70
4520;DHT22;2272;49.226;8.108;2023-07-20T12:38:28;30.80;56.70
4520;DHT22;2272;49.226;8.108;2023-07-20T12:40:56;30.90;56.80
4520;DHT22;2272;49.226;8.108;2023-07-20T12:43:24;30.90;56.60
4520;DHT22;2272;49.226;8.108;2023-07-20T12:45:51;30.30;56.70
4520;DHT22;2272;49.226;8.108;2023-07-20T12:48:18;29.60;56.90
4520;DHT22;2272;49.226;8.108;2023-07-20T12:50:46;29.30;56.80
4520;DHT22;2272;49.226;8.108;2023-07-20T12:53:13;29.30;56.70
4520;DHT22;2272;49.226;8.108;2023-07-20T12:55:39;29.40;58.20
4520;DHT22;2272;49.226;8.108;2023-07-20T12:58:07;29.50;57.80
4520;DHT22;2272;49.226;8.108;2023-07-20T13:00:34;29.60;57.60
4520;DHT22;2272;49.226;8.108;2023-07-20T13:03:01;29.50;57.70
4520;DHT22;2272;49.226;8.108;2023-07-20T13:05:30;29.50;57.80
4520;DHT22;2272;49.226;8.108;2023-07-20T13:07:59;29.50;58.00
4520;DHT22;2272;49.226;8.108;2023-07-20T13:10:26;29.10;57.50
4520;DHT22;2272;49.226;8.108;2023-07-20T13:12:53;28.80;58.10
4520;DHT22;2272;49.226;8.108;2023-07-20T13:15:20;28.70;59.30
4520;DHT22;2272;49.226;8.108;2023-07-20T13:17:47;28.80;59.80
4520;DHT22;2272;49.226;8.108;2023-07-20T13:20:14;28.90;59.70
4520;DHT22;2272;49.226;8.108;2023-07-20T13:22:41;29.10;58.70
4520;DHT22;2272;49.226;8.108;2023-07-20T13:25:09;29.30;57.30
4520;DHT22;2272;49.226;8.108;2023-07-20T13:27:36;29.20;56.10
4520;DHT22;2272;49.226;8.108;2023-07-20T13:30:04;29.20;55.20
4520;DHT22;2272;49.226;8.108;2023-07-20T13:32:32;29.00;56.10
4520;DHT22;2272;49.226;8.108;2023-07-20T13:34:59;29.20;56.60
4520;DHT22;2272;49.226;8.108;2023-07-20T13:37:26;29.40;57.00
4520;DHT22;2272;49.226;8.108;2023-07-20T13:39:53;29.90;56.60
4520;DHT22;2272;49.226;8.108;2023-07-20T13:42:21;30.20;56.10
4520;DHT22;2272;49.226;8.108;2023-07-20T13:44:48;30.50;56.00
4520;DHT22;2272;49.226;8.108;2023-07-20T13:47:15;30.40;53.90
4520;DHT22;2272;49.226;8.108;2023-07-20T13:49:42;30.20;54.40
4520;DHT22;2272;49.226;8.108;2023-07-20T13:52:09;30.10;54.40
4520;DHT22;2272;49.226;8.108;2023-07-20T13:54:36;29.80;54.60
4520;DHT22;2272;49.226;8.108;2023-07-20T13:57:03;29.60;55.20
4520;DHT22;2272;49.226;8.108;2023-07-20T13:59:32;29.50;55.80
4520;DHT22;2272;49.226;8.108;2023-07-20T14:01:59;29.60;55.40
4520;DHT22;2272;49.226;8.108;2023-07-20T14:04:25;29.70;55.70
4520;DHT22;2272;49.226;8.108;2023-07-20T14:06:52;29.50;55.50
4520;DHT22;2272;49.226;8.108;2023-07-20T14:09:19;29.50;56.00
4520;DHT22;2272;49.226;8.108;2023-07-20T14:11:46;29.50;55.80
4520;DHT22;2272;49.226;8.108;2023-07-20T14:14:13;29.40;55.40
4520;DHT22;2272;49.226;8.108;2023-07-20T14:16:41;29.60;56.10
4520;DHT22;2272;49.226;8.108;2023-07-20T14:19:07;29.90;55.90
4520;DHT22;2272;49.226;8.108;2023-07-20T14:21:34;30.10;54.90
4520;DHT22;2272;49.226;8.108;2023-07-20T14:24:01;30.20;54.60
4520;DHT22;2272;49.226;8.108;2023-07-20T14:26:27;30.20;54.30
4520;DHT22;2272;49.226;8.108;2023-07-20T14:28:54;30.40;55.60
4520;DHT22;2272;49.226;8.108;2023-07-20T14:31:21;30.60;54.10
4520;DHT22;2272;49.226;8.108;2023-07-20T14:33:49;30.60;54.40
4520;DHT22;2272;49.226;8.108;2023-07-20T14:36:16;30.50;54.50
4520;DHT22;2272;49.226;8.108;2023-07-20T14:38:43;30.50;54.50
4520;DHT22;2272;49.226;8.108;2023-07-20T14:41:09;30.60;53.90
4520;DHT22;2272;49.226;8.108;2023-07-20T14:43:37;30.50;53.40
4520;DHT22;2272;49.226;8.108;2023-07-20T14:46:05;30.20;54.30
4520;DHT22;2272;49.226;8.108;2023-07-20T14:48:32;30.10;54.30
4520;DHT22;2272;49.226;8.108;2023-07-20T14:51:00;29.90;54.30
4520;DHT22;2272;49.226;8.108;2023-07-20T14:53:27;29.70;54.10
4520;DHT22;2272;49.226;8.108;2023-07-20T14:55:58;29.80;54.50
4520;DHT22;2272;49.226;8.108;2023-07-20T14:58:26;30.10;54.30
4520;DHT22;2272;49.226;8.108;2023-07-20T15:00:53;30.30;54.80
4520;DHT22;2272;49.226;8.108;2023-07-20T15:03:19;30.80;53.60
4520;DHT22;2272;49.226;8.108;2023-07-20T15:05:46;30.90;52.80
4520;DHT22;2272;49.226;8.108;2023-07-20T15:08:14;31.20;52.60
4520;DHT22;2272;49.226;8.108;2023-07-20T15:10:41;31.50;53.20
4520;DHT22;2272;49.226;8.108;2023-07-20T15:13:11;31.80;52.90
4520;DHT22;2272;49.226;8.108;2023-07-20T15:15:38;31.90;53.40
4520;DHT22;2272;49.226;8.108;2023-07-20T15:18:04;32.00;52.60
4520;DHT22;2272;49.226;8.108;2023-07-20T15:20:31;31.80;52.80
4520;DHT22;2272;49.226;8.108;2023-07-20T15:22:59;31.50;52.50
4520;DHT22;2272;49.226;8.108;2023-07-20T15:25:27;31.20;53.20
4520;DHT22;2272;49.226;8.108;2023-07-20T15:27:54;31.10;53.20
4520;DHT22;2272;49.226;8.108;2023-07-20T15:30:21;30.90;53.10
4520;DHT22;2272;49.226;8.108;2023-07-20T15:32:48;30.90;53.10
4520;DHT22;2272;49.226;8.108;2023-07-20T15:35:15;30.80;53.30
4520;DHT22;2272;49.226;8.108;2023-07-20T15:37:42;30.40;53.40
4520;DHT22;2272;49.226;8.108;2023-07-20T15:40:11;30.00;53.90
4520;DHT22;2272;49.226;8.108;2023-07-20T15:42:39;29.70;55.00
4520;DHT22;2272;49.226;8.108;2023-07-20T15:45:07;29.40;54.80
4520;DHT22;2272;49.226;8.108;2023-07-20T15:47:34;28.90;55.60
4520;DHT22;2272;49.226;8.108;2023-07-20T15:50:02;28.50;55.90
4520;DHT22;2272;49.226;8.108;2023-07-20T15:52:28;28.20;57.60
4520;DHT22;2272;49.226;8.108;2023-07-20T15:54:55;27.80;57.30
4520;DHT22;2272;49.226;8.108;2023-07-20T15:57:23;27.40;57.90
4520;DHT22;2272;49.226;8.108;2023-07-20T15:59:51;27.30;57.90
4520;DHT22;2272;49.226;8.108;2023-07-20T16:02:17;27.50;58.20
4520;DHT22;2272;49.226;8.108;2023-07-20T16:04:44;27.80;58.40
4520;DHT22;2272;49.226;8.108;2023-07-20T16:07:11;28.20;58.10
4520;DHT22;2272;49.226;8.108;2023-07-20T16:09:38;28.40;57.60
4520;DHT22;2272;49.226;8.108;2023-07-20T16:12:06;28.50;57.40
4520;DHT22;2272;49.226;8.108;2023-07-20T16:14:33;28.50;57.10